createdAt,value
2019-05-19T00:00:03.638Z,13.56
2019-05-19T00:01:03.625Z,13.62
2019-05-19T00:02:03.613Z,13.59
2019-05-19T00:03:03.636Z,13.65
2019-05-19T00:04:03.596Z,13.59
2019-05-19T00:05:03.587Z,13.52
2019-05-19T00:06:03.577Z,13.56
2019-05-19T00:07:03.568Z,13.63
2019-05-19T00:08:03.572Z,13.57
2019-05-19T00:09:03.554Z,13.54
2019-05-19T00:10:03.550Z,13.59
2019-05-19T00:11:03.533Z,13.68
2019-05-19T00:12:03.524Z,13.59
2019-05-19T00:13:03.516Z,13.57
2019-05-19T00:14:03.505Z,13.57
2019-05-19T00:15:03.497Z,13.59
2019-05-19T00:16:03.488Z,13.56
2019-05-19T00:17:03.480Z,13.53
2019-05-19T00:18:03.471Z,13.54
2019-05-19T00:19:03.469Z,13.59
2019-05-19T00:20:03.459Z,13.56
2019-05-19T00:21:03.443Z,13.59
2019-05-19T00:22:03.441Z,13.59
2019-05-19T00:23:03.431Z,13.59
2019-05-19T00:24:03.417Z,13.50
2019-05-19T00:25:03.411Z,13.53
2019-05-19T00:26:03.402Z,13.57
2019-05-19T00:27:03.389Z,13.52
2019-05-19T00:28:03.384Z,13.49
2019-05-19T00:29:03.372Z,13.49
2019-05-19T00:30:03.366Z,13.54
2019-05-19T00:31:03.356Z,13.56
2019-05-19T00:32:03.347Z,13.56
2019-05-19T00:33:03.336Z,13.62
2019-05-19T00:34:03.330Z,13.65
2019-05-19T00:35:03.317Z,13.60
2019-05-19T00:36:03.315Z,13.59
2019-05-19T00:37:03.300Z,13.60
2019-05-19T00:38:03.299Z,13.52
2019-05-19T00:39:03.282Z,13.62
2019-05-19T00:40:03.276Z,13.53
2019-05-19T00:41:03.316Z,13.57
2019-05-19T00:42:03.257Z,13.53
2019-05-19T00:43:03.247Z,13.41
2019-05-19T00:44:03.239Z,13.38
2019-05-19T00:45:03.233Z,13.28
2019-05-19T00:46:03.219Z,13.39
2019-05-19T00:47:03.213Z,13.30
2019-05-19T00:48:03.219Z,13.33
2019-05-19T00:49:03.191Z,13.31
2019-05-19T00:50:03.181Z,13.27
2019-05-19T00:51:03.274Z,13.28
2019-05-19T00:52:03.166Z,13.33
2019-05-19T00:53:03.154Z,13.37
2019-05-19T00:54:03.148Z,13.33
2019-05-19T00:55:03.136Z,13.38
2019-05-19T00:56:03.128Z,13.37
2019-05-19T00:57:03.119Z,13.35
2019-05-19T00:58:03.108Z,13.35
2019-05-19T00:59:03.100Z,13.38
2019-05-19T01:00:03.224Z,13.39
2019-05-19T01:01:03.088Z,13.46
2019-05-19T01:02:03.072Z,13.47
2019-05-19T01:03:03.062Z,13.42
2019-05-19T01:04:03.054Z,13.39
2019-05-19T01:05:03.046Z,13.46
2019-05-19T01:06:03.038Z,13.46
2019-05-19T01:07:03.027Z,13.47
2019-05-19T01:08:03.023Z,13.50
2019-05-19T01:09:03.008Z,13.50
2019-05-19T01:10:03.010Z,13.49
2019-05-19T01:11:03.018Z,13.54
2019-05-19T01:12:02.983Z,13.54
2019-05-19T01:13:02.973Z,13.54
2019-05-19T01:14:02.983Z,13.57
2019-05-19T01:15:02.953Z,13.53
2019-05-19T01:16:02.944Z,13.50
2019-05-19T01:17:02.936Z,13.49
2019-05-19T01:18:02.937Z,13.53
2019-05-19T01:19:02.921Z,13.53
2019-05-19T01:20:02.914Z,13.54
2019-05-19T01:21:02.901Z,13.50
2019-05-19T01:22:02.894Z,13.44
2019-05-19T01:23:02.881Z,13.38
2019-05-19T01:24:02.874Z,13.38
2019-05-19T01:25:02.863Z,13.39
2019-05-19T01:26:02.854Z,13.30
2019-05-19T01:27:02.850Z,13.23
2019-05-19T01:28:02.874Z,13.30
2019-05-19T01:29:02.827Z,13.27
2019-05-19T01:30:02.818Z,13.35
2019-05-19T01:31:02.815Z,13.27
2019-05-19T01:32:02.804Z,13.33
2019-05-19T01:33:02.793Z,13.31
2019-05-19T01:34:02.781Z,13.31
2019-05-19T01:35:02.785Z,13.28
2019-05-19T01:36:02.763Z,13.27
2019-05-19T01:37:02.760Z,13.28
2019-05-19T01:38:02.743Z,13.37
2019-05-19T01:39:02.737Z,13.38
2019-05-19T01:40:02.862Z,13.47
2019-05-19T01:41:02.717Z,13.42
2019-05-19T01:42:02.707Z,13.41
2019-05-19T01:43:02.698Z,13.42
2019-05-19T01:44:02.690Z,13.44
2019-05-19T01:45:02.684Z,13.50
2019-05-19T01:46:02.670Z,13.50
2019-05-19T01:47:02.663Z,13.50
2019-05-19T01:48:02.652Z,13.53
2019-05-19T01:49:02.647Z,13.52
2019-05-19T01:50:16.821Z,13.46
2019-05-19T01:51:02.624Z,13.46
2019-05-19T01:52:02.715Z,13.47
2019-05-19T01:53:02.606Z,13.39
2019-05-19T01:54:02.596Z,13.41
2019-05-19T01:55:02.592Z,13.47
2019-05-19T01:56:02.582Z,13.39
2019-05-19T01:57:02.570Z,13.44
2019-05-19T01:58:02.558Z,13.41
2019-05-19T01:59:02.552Z,13.44
2019-05-19T02:00:03.185Z,13.49
2019-05-19T02:01:02.539Z,13.47
2019-05-19T02:02:02.524Z,13.49
2019-05-19T02:03:02.515Z,13.52
2019-05-19T02:04:02.505Z,13.52
2019-05-19T02:05:02.495Z,13.47
2019-05-19T02:06:02.485Z,13.52
2019-05-19T02:07:02.476Z,13.50
2019-05-19T02:08:02.471Z,13.47
2019-05-19T02:09:02.458Z,13.52
2019-05-19T02:10:02.737Z,13.46
2019-05-19T02:11:02.441Z,13.47
2019-05-19T02:12:02.431Z,13.47
2019-05-19T02:13:05.143Z,13.52
2019-05-19T02:14:02.411Z,13.49
2019-05-19T02:15:02.403Z,13.44
2019-05-19T02:16:02.395Z,13.44
2019-05-19T02:17:02.387Z,13.46
2019-05-19T02:18:02.379Z,13.42
2019-05-19T02:19:02.489Z,13.44
2019-05-19T02:20:02.367Z,13.38
2019-05-19T02:21:02.467Z,13.33
2019-05-19T02:22:02.341Z,13.31
2019-05-19T02:23:03.583Z,13.31
2019-05-19T02:24:02.338Z,13.28
2019-05-19T02:25:02.313Z,13.30
2019-05-19T02:26:02.304Z,13.31
2019-05-19T02:27:02.295Z,13.18
2019-05-19T02:28:02.298Z,13.25
2019-05-19T02:29:02.280Z,13.28
2019-05-19T02:30:02.614Z,13.35
2019-05-19T02:31:02.266Z,13.25
2019-05-19T02:32:02.254Z,13.31
2019-05-19T02:33:02.244Z,13.28
2019-05-19T02:34:02.234Z,13.27
2019-05-19T02:35:02.223Z,13.31
2019-05-19T02:36:02.212Z,13.30
2019-05-19T02:37:02.204Z,13.28
2019-05-19T02:38:02.194Z,13.25
2019-05-19T02:39:02.189Z,13.25
2019-05-19T02:40:02.212Z,13.27
2019-05-19T02:41:02.167Z,13.30
2019-05-19T02:42:02.155Z,13.27
2019-05-19T02:43:02.155Z,13.28
2019-05-19T02:44:02.140Z,13.22
2019-05-19T02:45:02.134Z,13.30
2019-05-19T02:46:02.129Z,13.16
2019-05-19T02:47:02.115Z,13.25
2019-05-19T02:48:02.107Z,13.23
2019-05-19T02:49:02.098Z,13.25
2019-05-19T02:50:02.092Z,13.22
2019-05-19T02:51:02.082Z,13.22
2019-05-19T02:52:02.078Z,13.27
2019-05-19T02:53:02.055Z,13.15
2019-05-19T02:54:02.047Z,13.23
2019-05-19T02:55:02.066Z,13.23
2019-05-19T02:56:02.033Z,13.19
2019-05-19T02:57:02.022Z,13.22
2019-05-19T02:58:02.104Z,13.27
2019-05-19T02:59:01.999Z,13.16
2019-05-19T03:00:01.991Z,13.22
2019-05-19T03:01:01.992Z,13.15
2019-05-19T03:02:01.982Z,13.19
2019-05-19T03:03:01.963Z,13.13
2019-05-19T03:04:01.957Z,13.23
2019-05-19T03:05:01.962Z,13.20
2019-05-19T03:06:01.934Z,13.08
2019-05-19T03:07:01.934Z,13.11
2019-05-19T03:08:01.918Z,13.16
2019-05-19T03:09:01.908Z,13.08
2019-05-19T03:10:01.898Z,13.09
2019-05-19T03:11:01.897Z,13.09
2019-05-19T03:12:01.882Z,13.00
2019-05-19T03:13:01.923Z,13.00
2019-05-19T03:14:01.860Z,13.11
2019-05-19T03:15:01.853Z,13.09
2019-05-19T03:16:01.842Z,13.11
2019-05-19T03:17:01.832Z,13.00
2019-05-19T03:18:01.830Z,13.04
2019-05-19T03:19:01.814Z,13.04
2019-05-19T03:20:01.806Z,13.00
2019-05-19T03:21:11.213Z,13.08
2019-05-19T03:22:01.789Z,13.09
2019-05-19T03:23:01.780Z,13.08
2019-05-19T03:24:01.768Z,13.18
2019-05-19T03:25:01.772Z,13.22
2019-05-19T03:26:01.749Z,13.18
2019-05-19T03:27:01.740Z,13.09
2019-05-19T03:28:01.731Z,13.16
2019-05-19T03:29:01.723Z,13.11
2019-05-19T03:30:01.750Z,13.16
2019-05-19T03:31:01.703Z,13.11
2019-05-19T03:32:01.694Z,13.05
2019-05-19T03:33:01.696Z,13.15
2019-05-19T03:34:01.676Z,13.12
2019-05-19T03:35:01.666Z,13.12
2019-05-19T03:36:01.657Z,13.12
2019-05-19T03:37:01.652Z,13.08
2019-05-19T03:38:01.654Z,13.04
2019-05-19T03:39:01.637Z,13.11
2019-05-19T03:40:01.625Z,13.11
2019-05-19T03:41:01.614Z,13.00
2019-05-19T03:42:01.851Z,12.95
2019-05-19T03:43:01.593Z,13.04
2019-05-19T03:44:01.583Z,12.95
2019-05-19T03:45:01.582Z,13.05
2019-05-19T03:46:01.564Z,13.00
2019-05-19T03:47:01.555Z,12.97
2019-05-19T03:48:01.546Z,13.00
2019-05-19T03:49:01.538Z,12.98
2019-05-19T03:50:01.528Z,12.95
2019-05-19T03:51:01.520Z,12.90
2019-05-19T03:52:01.553Z,13.01
2019-05-19T03:53:01.601Z,12.87
2019-05-19T03:54:01.524Z,13.00
2019-05-19T03:55:01.491Z,13.00
2019-05-19T03:56:01.474Z,13.00
2019-05-19T03:57:01.463Z,13.01
2019-05-19T03:58:01.455Z,13.04
2019-05-19T03:59:01.446Z,13.03
2019-05-19T04:00:01.437Z,13.03
2019-05-19T04:01:01.429Z,12.94
2019-05-19T04:02:02.618Z,12.95
2019-05-19T04:03:01.410Z,12.98
2019-05-19T04:04:01.408Z,12.87
2019-05-19T04:05:01.397Z,13.01
2019-05-19T04:06:01.381Z,13.01
2019-05-19T04:07:01.376Z,13.01
2019-05-19T04:08:01.362Z,12.94
2019-05-19T04:09:01.373Z,12.98
2019-05-19T04:10:01.342Z,12.94
2019-05-19T04:11:01.333Z,12.94
2019-05-19T04:12:01.329Z,12.91
2019-05-19T04:13:01.326Z,12.97
2019-05-19T04:14:01.317Z,13.00
2019-05-19T04:15:01.296Z,12.98
2019-05-19T04:16:01.287Z,12.97
2019-05-19T04:17:01.288Z,13.01
2019-05-19T04:18:01.271Z,12.97
2019-05-19T04:19:01.260Z,12.98
2019-05-19T04:20:01.574Z,13.01
2019-05-19T04:21:01.243Z,13.11
2019-05-19T04:22:01.244Z,13.04
2019-05-19T04:23:01.226Z,13.12
2019-05-19T04:24:01.212Z,13.09
2019-05-19T04:25:01.207Z,12.95
2019-05-19T04:26:01.199Z,13.09
2019-05-19T04:27:01.188Z,13.08
2019-05-19T04:28:01.191Z,13.13
2019-05-19T04:29:01.169Z,13.05
2019-05-19T04:30:01.158Z,13.12
2019-05-19T04:31:01.159Z,13.08
2019-05-19T04:32:01.141Z,13.11
2019-05-19T04:33:01.131Z,13.15
2019-05-19T04:34:01.122Z,13.16
2019-05-19T04:35:01.113Z,13.18
2019-05-19T04:36:01.118Z,13.25
2019-05-19T04:37:01.094Z,13.23
2019-05-19T04:38:01.085Z,13.31
2019-05-19T04:39:01.076Z,13.31
2019-05-19T04:40:01.072Z,13.30
2019-05-19T04:41:01.057Z,13.39
2019-05-19T04:42:01.049Z,13.42
2019-05-19T04:43:01.039Z,13.46
2019-05-19T04:44:01.031Z,13.54
2019-05-19T04:45:01.028Z,13.54
2019-05-19T04:46:01.013Z,13.54
2019-05-19T04:47:01.014Z,13.57
2019-05-19T04:48:00.997Z,13.56
2019-05-19T04:49:00.987Z,13.50
2019-05-19T04:50:00.987Z,13.57
2019-05-19T04:51:00.976Z,13.53
2019-05-19T04:52:06.870Z,13.57
2019-05-19T04:53:00.959Z,13.70
2019-05-19T04:54:01.045Z,13.67
2019-05-19T04:55:00.956Z,13.67
2019-05-19T04:56:00.932Z,13.79
2019-05-19T04:57:00.923Z,13.74
2019-05-19T04:58:00.907Z,13.78
2019-05-19T04:59:00.899Z,13.85
2019-05-19T05:00:00.892Z,13.89
2019-05-19T05:01:00.881Z,13.85
2019-05-19T05:02:00.881Z,13.81
2019-05-19T05:03:00.866Z,13.83
2019-05-19T05:04:00.869Z,13.83
2019-05-19T05:05:00.862Z,13.92
2019-05-19T05:06:00.837Z,13.79
2019-05-19T05:07:00.831Z,13.90
2019-05-19T05:08:00.822Z,13.93
2019-05-19T05:09:00.811Z,14.04
2019-05-19T05:10:00.802Z,14.05
2019-05-19T05:11:00.839Z,14.12
2019-05-19T05:12:00.787Z,14.04
2019-05-19T05:13:00.776Z,14.05
2019-05-19T05:14:00.766Z,14.12
2019-05-19T05:15:00.758Z,14.15
2019-05-19T05:16:00.751Z,14.20
2019-05-19T05:17:01.244Z,14.23
2019-05-19T05:18:00.732Z,14.22
2019-05-19T05:19:00.738Z,14.28
2019-05-19T05:20:00.715Z,14.22
2019-05-19T05:21:00.707Z,14.28
2019-05-19T05:22:00.709Z,14.30
2019-05-19T05:23:00.689Z,14.22
2019-05-19T05:24:00.681Z,14.26
2019-05-19T05:25:00.674Z,14.26
2019-05-19T05:26:00.663Z,14.33
2019-05-19T05:27:00.657Z,14.25
2019-05-19T05:28:00.647Z,14.30
2019-05-19T05:29:00.642Z,14.30
2019-05-19T05:30:00.631Z,14.23
2019-05-19T05:31:00.622Z,14.22
2019-05-19T05:32:00.615Z,14.35
2019-05-19T05:33:01.866Z,14.28
2019-05-19T05:34:00.600Z,14.33
2019-05-19T05:35:00.617Z,14.35
2019-05-19T05:36:00.621Z,14.45
2019-05-19T05:37:00.626Z,14.43
2019-05-19T05:38:00.564Z,14.47
2019-05-19T05:39:00.558Z,14.43
2019-05-19T05:40:00.548Z,14.43
2019-05-19T05:41:00.541Z,14.44
2019-05-19T05:42:00.533Z,14.45
2019-05-19T05:43:00.523Z,14.55
2019-05-19T05:44:00.518Z,14.51
2019-05-19T05:45:00.509Z,14.44
2019-05-19T05:46:00.499Z,14.53
2019-05-19T05:47:00.490Z,14.51
2019-05-19T05:48:00.483Z,14.53
2019-05-19T05:49:01.883Z,14.59
2019-05-19T05:50:00.468Z,14.63
2019-05-19T05:51:00.457Z,14.60
2019-05-19T05:52:00.449Z,14.51
2019-05-19T05:53:00.441Z,14.63
2019-05-19T05:54:00.433Z,14.65
2019-05-19T05:55:00.474Z,14.66
2019-05-19T05:56:00.416Z,14.72
2019-05-19T05:57:00.410Z,14.66
2019-05-19T05:58:00.403Z,14.69
2019-05-19T05:59:00.392Z,14.69
2019-05-19T06:00:00.434Z,14.66
2019-05-19T06:01:00.376Z,14.70
2019-05-19T06:02:00.389Z,14.69
2019-05-19T06:03:00.455Z,14.72
2019-05-19T06:04:01.056Z,14.73
2019-05-19T06:05:00.344Z,14.77
2019-05-19T06:06:00.335Z,14.81
2019-05-19T06:07:00.331Z,14.84
2019-05-19T06:08:00.320Z,14.91
2019-05-19T06:09:00.312Z,14.92
2019-05-19T06:10:00.309Z,15.00
2019-05-19T06:11:00.302Z,14.99
2019-05-19T06:12:00.290Z,15.03
2019-05-19T06:13:00.282Z,15.03
2019-05-19T06:14:00.273Z,14.99
2019-05-19T06:15:00.272Z,15.10
2019-05-19T06:16:00.257Z,15.00
2019-05-19T06:17:00.253Z,15.17
2019-05-19T06:18:00.242Z,15.00
2019-05-19T06:19:00.268Z,15.06
2019-05-19T06:20:02.421Z,15.04
2019-05-19T06:21:00.323Z,15.15
2019-05-19T06:22:02.969Z,15.18
2019-05-19T06:23:00.206Z,15.22
2019-05-19T06:24:00.197Z,15.27
2019-05-19T06:25:00.195Z,15.36
2019-05-19T06:26:00.300Z,15.47
2019-05-19T06:27:00.323Z,15.46
2019-05-19T06:28:00.269Z,15.67
2019-05-19T06:29:00.159Z,15.65
2019-05-19T06:30:00.162Z,15.62
2019-05-19T06:31:00.146Z,15.64
2019-05-19T06:32:00.188Z,15.77
2019-05-19T06:33:00.183Z,15.88
2019-05-19T06:34:00.125Z,16.02
2019-05-19T06:35:00.128Z,16.12
2019-05-19T06:36:00.115Z,16.08
2019-05-19T06:37:00.107Z,16.15
2019-05-19T06:38:00.100Z,16.26
2019-05-19T06:39:00.209Z,16.35
2019-05-19T06:40:00.102Z,16.39
2019-05-19T06:41:00.080Z,16.33
2019-05-19T06:42:00.225Z,16.38
2019-05-19T06:43:00.069Z,16.38
2019-05-19T06:44:03.241Z,16.42
2019-05-19T06:45:00.064Z,16.32
2019-05-19T06:46:00.047Z,16.33
2019-05-19T06:47:00.042Z,16.38
2019-05-19T06:48:00.038Z,16.41
2019-05-19T06:49:00.068Z,16.39
2019-05-19T06:50:00.022Z,16.41
2019-05-19T06:51:00.019Z,16.36
2019-05-19T06:52:00.012Z,16.33
2019-05-19T06:53:13.294Z,16.28
2019-05-19T06:53:59.997Z,16.33
2019-05-19T06:54:59.992Z,16.41
2019-05-19T06:55:59.986Z,16.58
2019-05-19T06:56:59.981Z,16.65
2019-05-19T06:57:59.976Z,16.68
2019-05-19T06:58:59.970Z,16.61
2019-05-19T06:59:59.964Z,16.71
2019-05-19T07:00:59.959Z,16.72
2019-05-19T07:01:59.952Z,16.71
2019-05-19T07:02:59.947Z,16.65
2019-05-19T07:03:59.941Z,16.81
2019-05-19T07:04:59.936Z,16.84
2019-05-19T07:05:59.930Z,16.83
2019-05-19T07:06:59.953Z,16.69
2019-05-19T07:07:59.920Z,16.78
2019-05-19T07:08:59.915Z,16.93
2019-05-19T07:09:59.909Z,17.08
2019-05-19T07:10:59.912Z,17.22
2019-05-19T07:11:59.904Z,17.30
2019-05-19T07:12:59.896Z,17.46
2019-05-19T07:14:02.906Z,17.71
2019-05-19T07:14:59.888Z,17.82
2019-05-19T07:15:59.893Z,17.87
2019-05-19T07:16:59.881Z,17.90
2019-05-19T07:17:59.877Z,18.00
2019-05-19T07:18:59.874Z,18.10
2019-05-19T07:19:59.871Z,18.25
2019-05-19T07:20:59.869Z,18.33
2019-05-19T07:21:59.865Z,18.43
2019-05-19T07:22:59.864Z,18.33
2019-05-19T07:23:59.861Z,18.44
2019-05-19T07:24:59.860Z,18.53
2019-05-19T07:25:59.862Z,18.50
2019-05-19T07:26:59.855Z,18.74
2019-05-19T07:27:59.854Z,18.71
2019-05-19T07:28:59.860Z,18.81
2019-05-19T07:29:59.850Z,18.73
2019-05-19T07:30:59.849Z,18.74
2019-05-19T07:31:59.848Z,18.75
2019-05-19T07:32:59.848Z,18.81
2019-05-19T07:33:59.846Z,18.95
2019-05-19T07:34:59.848Z,19.00
2019-05-19T07:35:59.849Z,18.92
2019-05-19T07:36:59.845Z,18.74
2019-05-19T07:37:59.845Z,18.62
2019-05-19T07:38:59.845Z,18.55
2019-05-19T07:39:59.853Z,18.71
2019-05-19T07:40:59.845Z,18.86
2019-05-19T07:41:59.844Z,18.98
2019-05-19T07:42:59.844Z,19.08
2019-05-19T07:43:59.844Z,19.16
2019-05-19T07:44:59.844Z,19.15
2019-05-19T07:45:59.843Z,18.86
2019-05-19T07:46:59.844Z,18.88
2019-05-19T07:47:59.846Z,18.88
2019-05-19T07:48:59.841Z,18.89
2019-05-19T07:49:59.839Z,18.77
2019-05-19T07:50:59.840Z,18.89
2019-05-19T07:51:59.838Z,18.90
2019-05-19T07:52:59.836Z,18.90
2019-05-19T07:53:59.833Z,19.27
2019-05-19T07:54:59.837Z,19.34
2019-05-19T07:55:59.833Z,19.44
2019-05-19T07:56:59.858Z,19.49
2019-05-19T07:57:59.831Z,19.69
2019-05-19T07:58:59.831Z,19.81
2019-05-19T07:59:59.831Z,19.94
2019-05-19T08:00:59.841Z,20.06
2019-05-19T08:01:59.833Z,20.32
2019-05-19T08:02:59.834Z,20.69
2019-05-19T08:03:59.836Z,21.03
2019-05-19T08:04:59.839Z,21.11
2019-05-19T08:05:59.839Z,21.30
2019-05-19T08:06:59.842Z,21.35
2019-05-19T08:07:59.847Z,21.50
2019-05-19T08:08:59.848Z,21.64
2019-05-19T08:09:59.851Z,21.73
2019-05-19T08:10:59.854Z,21.75
2019-05-19T08:11:59.858Z,21.88
2019-05-19T08:12:59.867Z,22.04
2019-05-19T08:13:59.866Z,22.11
2019-05-19T08:14:59.870Z,21.82
2019-05-19T08:15:59.875Z,21.03
2019-05-19T08:16:59.883Z,20.65
2019-05-19T08:17:59.882Z,19.96
2019-05-19T08:18:59.884Z,19.88
2019-05-19T08:19:59.886Z,19.84
2019-05-19T08:20:59.889Z,19.81
2019-05-19T08:21:59.890Z,19.74
2019-05-19T08:22:59.890Z,19.62
2019-05-19T08:24:01.153Z,19.45
2019-05-19T08:24:59.891Z,19.45
2019-05-19T08:25:59.891Z,19.41
2019-05-19T08:26:59.891Z,19.39
2019-05-19T08:28:08.304Z,19.51
2019-05-19T08:28:59.890Z,19.67
2019-05-19T08:29:59.889Z,19.66
2019-05-19T08:30:59.888Z,19.63
2019-05-19T08:31:59.889Z,19.67
2019-05-19T08:32:59.887Z,19.89
2019-05-19T08:33:59.894Z,20.18
2019-05-19T08:34:59.884Z,20.26
2019-05-19T08:35:59.884Z,20.70
2019-05-19T08:36:59.884Z,20.93
2019-05-19T08:37:59.883Z,21.14
2019-05-19T08:38:59.884Z,21.25
2019-05-19T08:39:59.886Z,21.32
2019-05-19T08:40:59.897Z,21.33
2019-05-19T08:41:59.887Z,21.60
2019-05-19T08:42:59.889Z,21.61
2019-05-19T08:43:59.890Z,21.46
2019-05-19T08:44:59.892Z,21.05
2019-05-19T08:45:59.894Z,20.99
2019-05-19T08:46:59.895Z,20.85
2019-05-19T08:47:59.897Z,20.41
2019-05-19T08:48:59.902Z,20.28
2019-05-19T08:49:59.902Z,20.14
2019-05-19T08:50:59.900Z,20.25
2019-05-19T08:51:59.904Z,20.60
2019-05-19T08:52:59.910Z,20.90
2019-05-19T08:54:12.550Z,20.95
2019-05-19T08:54:59.906Z,21.42
2019-05-19T08:55:59.908Z,21.69
2019-05-19T08:56:59.909Z,21.96
2019-05-19T08:57:59.912Z,22.07
2019-05-19T08:58:59.914Z,22.28
2019-05-19T08:59:59.921Z,22.62
2019-05-19T09:00:59.923Z,22.81
2019-05-19T09:01:59.929Z,22.88
2019-05-19T09:02:59.928Z,23.02
2019-05-19T09:03:59.933Z,23.24
2019-05-19T09:04:59.942Z,23.51
2019-05-19T09:05:59.944Z,23.59
2019-05-19T09:06:59.948Z,23.83
2019-05-19T09:07:59.957Z,23.84
2019-05-19T09:08:59.959Z,23.91
2019-05-19T09:09:59.964Z,24.01
2019-05-19T09:10:59.970Z,24.26
2019-05-19T09:11:59.977Z,24.20
2019-05-19T09:12:59.983Z,24.20
2019-05-19T09:13:59.990Z,23.92
2019-05-19T09:15:00.001Z,23.83
2019-05-19T09:16:00.002Z,23.59
2019-05-19T09:17:00.033Z,23.61
2019-05-19T09:18:00.016Z,23.76
2019-05-19T09:19:00.023Z,23.84
2019-05-19T09:20:00.028Z,23.86
2019-05-19T09:21:00.036Z,23.73
2019-05-19T09:22:00.042Z,23.66
2019-05-19T09:23:00.050Z,23.73
2019-05-19T09:24:00.061Z,23.71
2019-05-19T09:25:00.063Z,23.58
2019-05-19T09:26:00.065Z,23.43
2019-05-19T09:27:00.078Z,22.99
2019-05-19T09:28:00.088Z,22.84
2019-05-19T09:29:00.100Z,22.68
2019-05-19T09:30:00.081Z,22.50
2019-05-19T09:31:00.092Z,22.38
2019-05-19T09:32:00.091Z,22.38
2019-05-19T09:33:00.195Z,22.30
2019-05-19T09:34:00.195Z,22.35
2019-05-19T09:35:00.098Z,22.18
2019-05-19T09:36:00.101Z,22.20
2019-05-19T09:37:00.102Z,22.04
2019-05-19T09:38:00.110Z,22.06
2019-05-19T09:39:00.105Z,22.23
2019-05-19T09:40:00.121Z,22.43
2019-05-19T09:41:00.163Z,22.57
2019-05-19T09:42:00.211Z,22.75
2019-05-19T09:43:00.116Z,22.57
2019-05-19T09:44:00.150Z,22.59
2019-05-19T09:45:00.266Z,22.39
2019-05-19T09:46:00.116Z,22.29
2019-05-19T09:47:00.167Z,22.29
2019-05-19T09:48:00.219Z,22.50
2019-05-19T09:49:00.172Z,22.60
2019-05-19T09:50:00.225Z,22.60
2019-05-19T09:51:00.121Z,22.65
2019-05-19T09:52:00.126Z,22.60
2019-05-19T09:53:00.228Z,22.65
2019-05-19T09:54:00.126Z,22.63
2019-05-19T09:55:00.177Z,22.62
2019-05-19T09:56:00.177Z,22.72
2019-05-19T09:57:01.031Z,22.59
2019-05-19T09:58:00.129Z,22.72
2019-05-19T09:59:00.132Z,22.51
2019-05-19T10:00:00.193Z,22.73
2019-05-19T10:01:00.137Z,22.94
2019-05-19T10:02:00.138Z,23.31
2019-05-19T10:03:00.143Z,23.63
2019-05-19T10:04:00.144Z,23.98
2019-05-19T10:05:00.198Z,24.47
2019-05-19T10:06:00.252Z,24.95
2019-05-19T10:07:00.194Z,24.99
2019-05-19T10:08:00.215Z,24.81
2019-05-19T10:09:00.218Z,24.86
2019-05-19T10:10:00.231Z,25.04
2019-05-19T10:11:00.229Z,25.21
2019-05-19T10:12:00.247Z,25.11
2019-05-19T10:13:00.290Z,25.35
2019-05-19T10:14:00.196Z,25.40
2019-05-19T10:15:00.267Z,25.33
2019-05-19T10:16:01.058Z,25.26
2019-05-19T10:17:00.366Z,24.80
2019-05-19T10:18:00.265Z,24.38
2019-05-19T10:19:00.270Z,24.14
2019-05-19T10:20:00.229Z,24.16
2019-05-19T10:21:00.283Z,24.11
2019-05-19T10:22:00.366Z,24.24
2019-05-19T10:23:00.348Z,24.29
2019-05-19T10:24:00.243Z,24.33
2019-05-19T10:25:20.519Z,24.14
2019-05-19T10:26:00.250Z,23.95
2019-05-19T10:27:00.254Z,23.95
2019-05-19T10:28:00.257Z,23.92
2019-05-19T10:29:00.263Z,24.02
2019-05-19T10:30:00.404Z,24.39
2019-05-19T10:31:00.269Z,24.40
2019-05-19T10:32:00.274Z,24.47
2019-05-19T10:33:00.279Z,24.68
2019-05-19T10:34:00.282Z,24.85
2019-05-19T10:35:00.302Z,25.28
2019-05-19T10:36:00.298Z,25.50
2019-05-19T10:37:00.301Z,25.62
2019-05-19T10:38:00.306Z,25.77
2019-05-19T10:39:00.312Z,25.43
2019-05-19T10:40:00.322Z,25.50
2019-05-19T10:41:00.323Z,25.26
2019-05-19T10:42:00.328Z,25.17
2019-05-19T10:43:00.334Z,25.36
2019-05-19T10:44:00.887Z,25.60
2019-05-19T10:45:00.355Z,25.62
2019-05-19T10:46:00.385Z,25.32
2019-05-19T10:47:00.362Z,24.98
2019-05-19T10:48:00.370Z,25.01
2019-05-19T10:49:00.378Z,24.74
2019-05-19T10:50:01.187Z,24.98
2019-05-19T10:51:00.390Z,24.99
2019-05-19T10:52:00.398Z,25.14
2019-05-19T10:53:00.403Z,25.11
2019-05-19T10:54:00.408Z,25.29
2019-05-19T10:55:00.415Z,25.38
2019-05-19T10:56:02.025Z,25.46
2019-05-19T10:57:00.427Z,25.46
2019-05-19T10:58:00.431Z,25.47
2019-05-19T10:59:00.438Z,25.44
2019-05-19T11:00:00.448Z,25.62
2019-05-19T11:01:00.449Z,25.48
2019-05-19T11:02:00.454Z,25.48
2019-05-19T11:03:00.461Z,25.48
2019-05-19T11:04:00.468Z,25.33
2019-05-19T11:05:00.470Z,25.17
2019-05-19T11:06:00.474Z,25.13
2019-05-19T11:07:00.479Z,24.96
2019-05-19T11:08:00.530Z,24.95
2019-05-19T11:09:00.489Z,25.03
2019-05-19T11:10:04.396Z,24.95
2019-05-19T11:11:00.499Z,24.81
2019-05-19T11:12:00.500Z,24.84
2019-05-19T11:13:00.504Z,24.43
2019-05-19T11:14:00.510Z,24.28
2019-05-19T11:15:00.510Z,24.29
2019-05-19T11:16:00.518Z,24.20
2019-05-19T11:17:00.519Z,24.26
2019-05-19T11:18:00.519Z,24.48
2019-05-19T11:19:00.527Z,24.65
2019-05-19T11:20:00.527Z,25.04
2019-05-19T11:21:00.534Z,25.13
2019-05-19T11:22:00.534Z,25.18
2019-05-19T11:23:01.790Z,25.46
2019-05-19T11:24:00.612Z,25.62
2019-05-19T11:25:00.545Z,25.77
2019-05-19T11:26:00.559Z,25.87
2019-05-19T11:27:00.553Z,26.21
2019-05-19T11:28:00.558Z,26.13
2019-05-19T11:29:00.564Z,26.37
2019-05-19T11:30:00.575Z,26.55
2019-05-19T11:31:00.573Z,26.58
2019-05-19T11:32:00.585Z,26.59
2019-05-19T11:33:00.586Z,26.75
2019-05-19T11:34:00.593Z,27.18
2019-05-19T11:35:00.605Z,27.27
2019-05-19T11:36:00.606Z,27.54
2019-05-19T11:37:00.614Z,27.73
2019-05-19T11:38:00.623Z,27.92
2019-05-19T11:39:01.187Z,28.12
2019-05-19T11:40:00.642Z,28.02
2019-05-19T11:41:00.650Z,27.90
2019-05-19T11:42:00.655Z,28.14
2019-05-19T11:43:00.665Z,28.17
2019-05-19T11:44:00.674Z,28.38
2019-05-19T11:45:00.697Z,28.10
2019-05-19T11:46:00.690Z,27.96
2019-05-19T11:47:00.699Z,27.73
2019-05-19T11:48:00.707Z,27.45
2019-05-19T11:49:00.718Z,27.18
2019-05-19T11:50:00.745Z,27.17
2019-05-19T11:51:00.741Z,26.85
2019-05-19T11:52:00.738Z,26.88
2019-05-19T11:53:00.748Z,26.81
2019-05-19T11:54:00.752Z,26.63
2019-05-19T11:55:00.768Z,26.38
2019-05-19T11:56:07.141Z,26.40
2019-05-19T11:57:00.775Z,26.47
2019-05-19T11:58:01.483Z,26.65
2019-05-19T11:59:00.801Z,26.84
2019-05-19T12:00:00.803Z,27.17
2019-05-19T12:01:00.806Z,27.39
2019-05-19T12:02:00.811Z,27.51
2019-05-19T12:03:00.883Z,27.75
2019-05-19T12:04:00.846Z,27.78
2019-05-19T12:05:00.840Z,27.73
2019-05-19T12:06:00.845Z,27.59
2019-05-19T12:07:00.861Z,27.36
2019-05-19T12:08:00.858Z,27.29
2019-05-19T12:09:00.870Z,27.45
2019-05-19T12:10:00.874Z,27.55
2019-05-19T12:11:00.907Z,27.58
2019-05-19T12:12:00.890Z,27.52
2019-05-19T12:13:00.900Z,27.42
2019-05-19T12:14:00.904Z,27.29
2019-05-19T12:15:00.960Z,26.96
2019-05-19T12:16:00.916Z,26.83
2019-05-19T12:17:00.923Z,26.18
2019-05-19T12:18:00.928Z,25.75
2019-05-19T12:19:00.933Z,25.63
2019-05-19T12:20:00.941Z,25.16
2019-05-19T12:21:00.947Z,24.85
2019-05-19T12:22:00.945Z,24.70
2019-05-19T12:23:00.949Z,24.50
2019-05-19T12:24:00.954Z,24.55
2019-05-19T12:25:00.960Z,24.48
2019-05-19T12:26:00.965Z,24.57
2019-05-19T12:27:00.960Z,24.55
2019-05-19T12:28:00.964Z,24.54
2019-05-19T12:29:00.967Z,24.54
2019-05-19T12:30:00.965Z,24.48
2019-05-19T12:31:00.967Z,24.45
2019-05-19T12:32:00.968Z,24.26
2019-05-19T12:33:00.970Z,24.16
2019-05-19T12:34:00.970Z,24.08
2019-05-19T12:35:00.973Z,23.92
2019-05-19T12:36:00.974Z,23.92
2019-05-19T12:37:00.980Z,23.68
2019-05-19T12:38:00.975Z,23.44
2019-05-19T12:39:00.975Z,23.48
2019-05-19T12:40:00.975Z,23.55
2019-05-19T12:41:00.972Z,23.40
2019-05-19T12:42:00.971Z,23.43
2019-05-19T12:43:00.987Z,23.47
2019-05-19T12:44:00.973Z,23.46
2019-05-19T12:45:00.971Z,23.47
2019-05-19T12:46:00.982Z,23.37
2019-05-19T12:47:00.969Z,23.28
2019-05-19T12:48:00.968Z,23.24
2019-05-19T12:49:00.968Z,23.18
2019-05-19T12:50:00.966Z,23.15
2019-05-19T12:51:00.963Z,23.02
2019-05-19T12:52:00.961Z,23.05